createdAt,value
2018-10-03T00:01:40.817Z,6.33
2018-10-03T00:04:08.813Z,6.62
2018-10-03T00:06:36.793Z,6.20
2018-10-03T00:09:06.597Z,6.40
2018-10-03T00:11:34.614Z,6.15
2018-10-03T00:14:02.731Z,6.40
2018-10-03T00:16:30.714Z,5.80
2018-10-03T00:18:58.722Z,6.20
2018-10-03T00:21:26.815Z,5.42
2018-10-03T00:23:54.821Z,5.97
2018-10-03T00:26:22.819Z,5.62
2018-10-03T00:28:51.009Z,5.65
2018-10-03T00:31:18.977Z,6.20
2018-10-03T00:33:46.980Z,5.05
2018-10-03T00:36:14.958Z,4.47
2018-10-03T00:38:42.951Z,5.42
2018-10-03T00:41:10.937Z,4.33
2018-10-03T00:43:39.083Z,4.80
2018-10-03T00:46:07.406Z,5.03
2018-10-03T00:48:35.634Z,4.65
2018-10-03T00:51:03.664Z,4.58
2018-10-03T00:53:31.810Z,4.25
2018-10-03T00:56:00.056Z,3.90
2018-10-03T00:58:28.195Z,3.80
2018-10-03T01:00:56.359Z,4.40
2018-10-03T01:03:24.524Z,3.52
2018-10-03T01:05:52.614Z,3.55
2018-10-03T01:08:20.717Z,3.45
2018-10-03T01:10:48.865Z,3.80
2018-10-03T01:13:16.979Z,3.83
2018-10-03T01:15:45.077Z,3.55
2018-10-03T01:18:13.143Z,4.20
2018-10-03T01:20:41.401Z,4.20
2018-10-03T01:23:09.489Z,3.52
2018-10-03T01:25:37.524Z,3.90
2018-10-03T01:28:05.781Z,4.03
2018-10-03T01:30:33.788Z,4.97
2018-10-03T01:33:01.779Z,4.45
2018-10-03T01:35:29.730Z,3.37
2018-10-03T01:37:57.787Z,3.25
2018-10-03T01:40:25.767Z,3.12
2018-10-03T01:42:53.696Z,3.33
2018-10-03T01:45:21.675Z,3.87
2018-10-03T01:47:49.766Z,4.17
2018-10-03T01:50:17.751Z,2.92
2018-10-03T01:52:45.753Z,3.60
2018-10-03T01:55:13.758Z,3.42
2018-10-03T01:57:41.718Z,3.22
2018-10-03T02:00:09.717Z,3.33
2018-10-03T02:02:37.692Z,3.20
2018-10-03T02:05:05.736Z,3.75
2018-10-03T02:07:33.801Z,3.22
2018-10-03T02:10:01.776Z,3.55
2018-10-03T02:12:29.746Z,3.00
2018-10-03T02:14:59.798Z,3.60
2018-10-03T02:17:27.778Z,2.62
2018-10-03T02:19:55.762Z,3.02
2018-10-03T02:22:23.724Z,3.25
2018-10-03T02:24:51.799Z,3.10
2018-10-03T02:27:19.908Z,3.00
2018-10-03T02:29:47.884Z,2.95
2018-10-03T02:32:15.947Z,3.25
2018-10-03T02:34:43.940Z,3.52
2018-10-03T02:37:11.923Z,3.00
2018-10-03T02:39:39.850Z,3.50
2018-10-03T02:42:07.920Z,3.10
2018-10-03T02:44:35.979Z,2.40
2018-10-03T02:47:03.929Z,2.45
2018-10-03T02:49:31.915Z,2.08
2018-10-03T02:51:59.896Z,2.60
2018-10-03T02:54:27.941Z,2.58
2018-10-03T02:56:55.922Z,2.50
2018-10-03T02:59:23.913Z,2.12
2018-10-03T03:01:51.980Z,3.12
2018-10-03T03:04:19.888Z,4.67
2018-10-03T03:06:47.811Z,2.50
2018-10-03T03:09:15.745Z,2.58
2018-10-03T03:11:43.740Z,2.95
2018-10-03T03:14:11.686Z,2.20
2018-10-03T03:16:39.654Z,2.87
2018-10-03T03:19:07.850Z,2.52
2018-10-03T03:21:36.174Z,2.90
2018-10-03T03:24:04.193Z,3.90
2018-10-03T03:26:32.306Z,2.80
2018-10-03T03:29:00.304Z,2.85
2018-10-03T03:31:28.353Z,2.70
2018-10-03T03:33:56.318Z,2.83
2018-10-03T03:36:24.349Z,2.75
2018-10-03T03:38:52.321Z,3.05
2018-10-03T03:41:20.274Z,2.55
2018-10-03T03:43:48.505Z,2.70
2018-10-03T03:46:16.463Z,3.15
2018-10-03T03:48:44.448Z,3.67
2018-10-03T03:51:12.458Z,3.00
2018-10-03T03:53:40.456Z,3.60
2018-10-03T03:56:08.461Z,2.30
2018-10-03T03:58:36.392Z,2.90
2018-10-03T04:01:04.486Z,2.98
2018-10-03T04:03:32.470Z,2.92
2018-10-03T04:06:00.422Z,3.25
2018-10-03T04:08:28.374Z,3.40
2018-10-03T04:10:56.477Z,3.33
2018-10-03T04:13:24.460Z,3.45
2018-10-03T04:15:52.492Z,3.25
2018-10-03T04:18:20.662Z,3.47
2018-10-03T04:20:48.692Z,3.40
2018-10-03T04:23:16.701Z,2.90
2018-10-03T04:25:44.630Z,4.15
2018-10-03T04:28:12.711Z,3.12
2018-10-03T04:30:40.743Z,3.10
2018-10-03T04:33:08.712Z,3.25
2018-10-03T04:35:36.643Z,2.80
2018-10-03T04:38:04.669Z,3.33
2018-10-03T04:40:32.633Z,3.77
2018-10-03T04:43:00.574Z,3.65
2018-10-03T04:45:28.549Z,3.65
2018-10-03T04:47:56.574Z,2.60
2018-10-03T04:50:24.559Z,3.77
2018-10-03T04:52:52.513Z,4.55
2018-10-03T04:55:20.503Z,3.65
2018-10-03T04:57:48.527Z,3.45
2018-10-03T05:00:16.514Z,3.77
2018-10-03T05:02:44.478Z,4.28
2018-10-03T05:05:12.442Z,2.75
2018-10-03T05:07:40.532Z,3.42
2018-10-03T05:10:08.468Z,2.95
2018-10-03T05:12:36.424Z,2.87
2018-10-03T05:15:04.433Z,2.75
2018-10-03T05:17:32.467Z,2.15
2018-10-03T05:20:00.445Z,2.50
2018-10-03T05:22:28.505Z,3.00
2018-10-03T05:24:56.519Z,2.90
2018-10-03T05:27:24.475Z,2.00
2018-10-03T05:29:52.448Z,2.55
2018-10-03T05:32:20.407Z,1.70
2018-10-03T05:34:48.490Z,2.45
2018-10-03T05:37:16.523Z,2.20
2018-10-03T05:39:44.541Z,2.20
2018-10-03T05:42:12.532Z,1.85
2018-10-03T05:44:40.578Z,1.40
2018-10-03T05:47:08.992Z,1.98
2018-10-03T05:49:36.975Z,1.50
2018-10-03T05:52:04.974Z,1.15
2018-10-03T05:54:33.088Z,1.60
2018-10-03T05:57:01.042Z,1.72
2018-10-03T05:59:29.031Z,2.20
2018-10-03T06:01:56.998Z,1.37
2018-10-03T06:04:25.022Z,2.05
2018-10-03T06:06:53.016Z,1.10
2018-10-03T06:09:21.048Z,1.45
2018-10-03T06:11:50.089Z,1.70
2018-10-03T06:14:18.156Z,1.25
2018-10-03T06:16:46.103Z,1.37
2018-10-03T06:19:14.157Z,1.15
2018-10-03T06:21:42.189Z,1.40
2018-10-03T06:24:10.196Z,2.60
2018-10-03T06:26:38.155Z,1.62
2018-10-03T06:29:06.083Z,0.95
2018-10-03T06:31:34.075Z,1.45
2018-10-03T06:34:02.064Z,1.65
2018-10-03T06:36:30.051Z,1.90
2018-10-03T06:38:57.974Z,1.50
2018-10-03T06:41:26.078Z,1.15
2018-10-03T06:43:54.147Z,1.15
2018-10-03T06:46:22.143Z,1.35
2018-10-03T06:48:50.228Z,1.32
2018-10-03T06:51:18.246Z,1.42
2018-10-03T06:53:46.410Z,1.02
2018-10-03T06:56:14.448Z,1.40
2018-10-03T06:58:42.430Z,1.32
2018-10-03T07:01:10.580Z,1.40
2018-10-03T07:03:38.601Z,1.05
2018-10-03T07:06:06.632Z,1.55
2018-10-03T07:08:34.621Z,1.60
2018-10-03T07:11:02.590Z,1.40
2018-10-03T07:13:30.564Z,1.30
2018-10-03T07:15:58.501Z,1.55
2018-10-03T07:18:26.453Z,1.60
2018-10-03T07:20:54.397Z,1.70
2018-10-03T07:23:27.886Z,1.40
2018-10-03T07:25:55.818Z,3.62
2018-10-03T07:28:23.786Z,1.40
2018-10-03T07:30:51.789Z,1.77
2018-10-03T07:33:25.434Z,1.60
2018-10-03T07:35:53.456Z,1.85
2018-10-03T07:38:21.681Z,1.62
2018-10-03T07:41:03.400Z,1.80
2018-10-03T07:43:31.368Z,1.95
2018-10-03T07:45:59.327Z,1.85
2018-10-03T07:48:27.421Z,1.87
2018-10-03T07:50:56.528Z,1.52
2018-10-03T07:53:24.952Z,1.42
2018-10-03T07:55:52.980Z,1.77
2018-10-03T07:58:20.950Z,2.37
2018-10-03T08:00:53.884Z,1.95
2018-10-03T08:03:21.939Z,1.80
2018-10-03T08:05:49.953Z,1.35
2018-10-03T08:08:17.962Z,1.70
2018-10-03T08:10:46.075Z,1.70
2018-10-03T08:13:14.041Z,1.20
2018-10-03T08:15:42.033Z,1.37
2018-10-03T08:18:10.051Z,1.90
2018-10-03T08:20:41.704Z,1.75
2018-10-03T08:23:09.716Z,1.85
2018-10-03T08:25:37.759Z,2.10
2018-10-03T08:28:06.127Z,2.58
2018-10-03T08:30:34.135Z,2.10
2018-10-03T08:33:02.428Z,1.57
2018-10-03T08:35:30.336Z,2.25
2018-10-03T08:37:58.351Z,1.95
2018-10-03T08:40:26.392Z,1.50
2018-10-03T08:42:54.469Z,2.37
2018-10-03T08:45:22.569Z,1.45
2018-10-03T08:47:50.541Z,1.92
2018-10-03T08:50:18.516Z,1.62
2018-10-03T08:52:46.505Z,1.50
2018-10-03T08:55:14.586Z,2.50
2018-10-03T08:57:42.751Z,1.80
2018-10-03T09:00:11.048Z,1.67
2018-10-03T09:02:39.001Z,1.17
2018-10-03T09:05:08.054Z,2.05
2018-10-03T09:07:36.021Z,2.17
2018-10-03T09:10:04.065Z,2.10
2018-10-03T09:12:32.099Z,1.95
2018-10-03T09:15:00.090Z,1.42
2018-10-03T09:17:28.075Z,2.47
2018-10-03T09:19:56.037Z,2.40
2018-10-03T09:22:24.059Z,1.87
2018-10-03T09:24:52.013Z,2.10
2018-10-03T09:27:19.968Z,2.35
2018-10-03T09:29:47.974Z,2.20
2018-10-03T09:32:15.930Z,1.80
2018-10-03T09:34:43.926Z,2.22
2018-10-03T09:37:12.056Z,2.47
2018-10-03T09:39:40.135Z,2.10
2018-10-03T09:42:08.086Z,1.80
2018-10-03T09:44:36.171Z,2.40
2018-10-03T09:47:04.171Z,3.40
2018-10-03T09:49:32.204Z,2.70
2018-10-03T09:52:00.163Z,2.00
2018-10-03T09:54:28.277Z,2.45
2018-10-03T09:56:56.253Z,2.00
2018-10-03T09:59:24.208Z,1.80
2018-10-03T10:01:52.179Z,1.70
2018-10-03T10:04:20.272Z,1.95
2018-10-03T10:06:48.440Z,1.60
2018-10-03T10:09:16.404Z,2.98
2018-10-03T10:11:44.714Z,2.20
2018-10-03T10:14:12.435Z,2.05
2018-10-03T10:16:40.409Z,1.70
2018-10-03T10:19:08.486Z,1.77
2018-10-03T10:21:36.466Z,1.85
2018-10-03T10:24:04.463Z,2.10
2018-10-03T10:26:32.636Z,1.72
2018-10-03T10:29:00.648Z,1.37
2018-10-03T10:31:28.638Z,2.08
2018-10-03T10:33:56.635Z,2.65
2018-10-03T10:36:24.682Z,1.75
2018-10-03T10:38:52.707Z,2.70
2018-10-03T10:41:20.919Z,2.20
2018-10-03T10:43:48.755Z,2.22
2018-10-03T10:46:16.730Z,1.60
2018-10-03T10:48:44.669Z,1.92
2018-10-03T10:51:12.807Z,2.00
2018-10-03T10:53:40.775Z,3.17
2018-10-03T10:56:08.719Z,2.50
2018-10-03T10:58:36.761Z,1.90
2018-10-03T11:01:04.802Z,2.55
2018-10-03T11:03:32.790Z,2.67
2018-10-03T11:06:00.754Z,3.55
2018-10-03T11:08:28.746Z,1.65
2018-10-03T11:10:56.792Z,1.62
2018-10-03T11:13:24.772Z,1.77
2018-10-03T11:15:52.743Z,1.85
2018-10-03T11:18:20.699Z,1.82
2018-10-03T11:20:48.688Z,1.52
2018-10-03T11:23:16.654Z,1.87
2018-10-03T11:25:44.751Z,2.47
2018-10-03T11:28:12.767Z,1.65
2018-10-03T11:30:40.733Z,2.30
2018-10-03T11:33:08.701Z,1.85
2018-10-03T11:35:36.671Z,1.70
2018-10-03T11:38:04.900Z,3.12
2018-10-03T11:40:32.950Z,1.75
2018-10-03T11:43:01.043Z,3.55
2018-10-03T11:45:29.031Z,2.00
2018-10-03T11:47:57.037Z,2.87
2018-10-03T11:50:25.048Z,2.65
2018-10-03T11:52:53.150Z,1.40
2018-10-03T11:55:21.174Z,1.75
2018-10-03T11:57:49.132Z,1.72
2018-10-03T12:00:17.129Z,2.52
2018-10-03T12:02:45.296Z,1.85
2018-10-03T12:05:13.222Z,2.02
2018-10-03T12:07:41.194Z,1.90
2018-10-03T12:10:09.248Z,1.92
2018-10-03T12:12:37.288Z,2.02
2018-10-03T12:15:05.517Z,1.60
2018-10-03T12:17:33.521Z,1.60
2018-10-03T12:20:01.469Z,1.30
2018-10-03T12:22:29.568Z,1.75
2018-10-03T12:24:57.623Z,1.42
2018-10-03T12:27:25.605Z,1.75
2018-10-03T12:29:53.566Z,1.65
2018-10-03T12:32:21.792Z,1.42
2018-10-03T12:34:49.745Z,1.57
2018-10-03T12:37:17.878Z,2.33
2018-10-03T12:39:45.955Z,1.75
2018-10-03T12:42:13.927Z,1.37
2018-10-03T12:44:42.037Z,1.95
2018-10-03T12:47:10.026Z,2.45
2018-10-03T12:49:38.046Z,1.70
2018-10-03T12:52:06.937Z,1.40
2018-10-03T12:54:34.965Z,1.57
2018-10-03T12:57:02.988Z,2.53
2018-10-03T12:59:31.081Z,1.30
2018-10-03T13:01:59.306Z,1.62
2018-10-03T13:04:27.444Z,3.95
2018-10-03T13:06:55.618Z,1.55
2018-10-03T13:09:23.669Z,1.35
2018-10-03T13:11:51.855Z,1.00
2018-10-03T13:14:19.958Z,1.65
2018-10-03T13:16:48.047Z,1.42
2018-10-03T13:19:16.237Z,1.25
2018-10-03T13:21:44.255Z,1.27
2018-10-03T13:24:12.399Z,1.20
2018-10-03T13:26:40.507Z,1.20
2018-10-03T13:29:08.492Z,3.10
2018-10-03T13:31:36.595Z,1.05
2018-10-03T13:34:04.605Z,1.15
2018-10-03T13:36:32.609Z,1.00
2018-10-03T13:39:00.648Z,1.37
2018-10-03T13:41:29.630Z,1.30
2018-10-03T13:43:57.619Z,1.12
2018-10-03T13:46:25.627Z,1.45
2018-10-03T13:48:53.635Z,3.08
2018-10-03T13:51:21.663Z,1.35
2018-10-03T13:53:49.669Z,1.10
2018-10-03T13:56:18.794Z,1.87
2018-10-03T13:58:46.776Z,1.12
2018-10-03T14:01:14.757Z,1.92
2018-10-03T14:03:42.780Z,1.35
2018-10-03T14:06:10.905Z,1.60
2018-10-03T14:08:38.920Z,1.00
2018-10-03T14:11:07.393Z,1.60
2018-10-03T14:13:35.388Z,1.75
2018-10-03T14:16:03.722Z,0.93
2018-10-03T14:18:31.722Z,1.30
2018-10-03T14:20:59.670Z,1.30
2018-10-03T14:23:27.639Z,1.10
2018-10-03T14:25:55.639Z,1.10
2018-10-03T14:28:23.707Z,1.75
2018-10-03T14:30:51.777Z,1.02
2018-10-03T14:33:19.792Z,1.35
2018-10-03T14:35:47.914Z,1.72
2018-10-03T14:38:15.955Z,1.05
2018-10-03T14:40:43.958Z,1.07
2018-10-03T14:43:11.956Z,0.80
2018-10-03T14:45:40.260Z,0.90
2018-10-03T14:48:08.382Z,1.10
2018-10-03T14:50:37.413Z,1.00
2018-10-03T14:53:05.458Z,0.82
2018-10-03T14:55:33.543Z,1.27
2018-10-03T14:58:01.556Z,1.20
2018-10-03T15:00:29.617Z,0.98
2018-10-03T15:02:57.646Z,1.17
2018-10-03T15:05:25.655Z,1.15
2018-10-03T15:07:54.601Z,1.17
2018-10-03T15:10:22.938Z,1.10
2018-10-03T15:12:51.156Z,1.22
2018-10-03T15:15:19.428Z,1.32
2018-10-03T15:17:47.564Z,1.72
2018-10-03T15:20:21.982Z,1.70
2018-10-03T15:22:50.121Z,1.55
2018-10-03T15:25:18.183Z,0.93
2018-10-03T15:27:49.856Z,1.17
2018-10-03T15:30:18.212Z,1.30
2018-10-03T15:32:46.494Z,1.62
2018-10-03T15:35:18.345Z,1.45
2018-10-03T15:37:46.529Z,2.55
2018-10-03T15:40:14.565Z,2.10
2018-10-03T15:42:42.577Z,2.10
2018-10-03T15:45:11.665Z,1.85
2018-10-03T15:47:39.792Z,1.40
2018-10-03T15:50:08.586Z,1.47
2018-10-03T15:52:36.949Z,1.07
2018-10-03T15:55:05.249Z,1.67
2018-10-03T15:57:34.120Z,3.22
2018-10-03T16:00:02.328Z,3.72
2018-10-03T16:02:30.374Z,2.08
2018-10-03T16:04:58.423Z,2.80
2018-10-03T16:07:26.409Z,2.42
2018-10-03T16:09:54.397Z,2.20
2018-10-03T16:12:23.690Z,1.50
2018-10-03T16:14:51.636Z,1.45
2018-10-03T16:17:19.693Z,2.12
2018-10-03T16:19:47.703Z,2.10
2018-10-03T16:22:15.844Z,1.10
2018-10-03T16:24:43.861Z,3.05
2018-10-03T16:27:11.868Z,1.50
2018-10-03T16:29:40.263Z,2.72
2018-10-03T16:32:15.155Z,1.55
2018-10-03T16:34:43.174Z,1.17
2018-10-03T16:37:11.170Z,3.98
2018-10-03T16:39:39.157Z,10.45
2018-10-03T16:42:11.132Z,5.75
2018-10-03T16:44:39.090Z,6.75
2018-10-03T16:47:08.085Z,10.55
2018-10-03T16:49:36.072Z,6.22
2018-10-03T16:52:04.214Z,3.42
2018-10-03T16:54:32.294Z,5.20
2018-10-03T16:57:00.969Z,2.00
2018-10-03T16:59:29.096Z,2.30
2018-10-03T17:01:57.077Z,1.85
2018-10-03T17:04:25.108Z,6.35
2018-10-03T17:07:00.363Z,1.52
2018-10-03T17:09:28.373Z,2.47
2018-10-03T17:11:56.389Z,9.10
2018-10-03T17:14:28.049Z,4.28
2018-10-03T17:16:56.251Z,2.22
2018-10-03T17:19:24.464Z,2.02
2018-10-03T17:21:53.146Z,1.20
2018-10-03T17:24:22.552Z,1.50
2018-10-03T17:26:50.609Z,1.70
2018-10-03T17:29:18.648Z,1.20
2018-10-03T17:31:47.152Z,1.60
2018-10-03T17:34:16.228Z,1.65
2018-10-03T17:36:46.190Z,1.80
2018-10-03T17:39:14.676Z,1.20
2018-10-03T17:41:43.381Z,1.45
2018-10-03T17:44:11.990Z,1.40
2018-10-03T17:46:40.033Z,1.25
2018-10-03T17:49:08.084Z,1.40
2018-10-03T17:51:36.223Z,2.02
2018-10-03T17:54:04.232Z,1.65
2018-10-03T17:56:32.247Z,1.65
2018-10-03T17:59:08.264Z,2.00
2018-10-03T18:01:39.293Z,1.40
2018-10-03T18:04:07.348Z,1.90
2018-10-03T18:06:35.459Z,1.55
2018-10-03T18:09:04.929Z,1.00
2018-10-03T18:11:32.803Z,2.00
2018-10-03T18:14:00.872Z,2.05
2018-10-03T18:16:34.545Z,1.98
2018-10-03T18:19:02.659Z,1.80
2018-10-03T18:21:30.666Z,1.35
2018-10-03T18:23:59.558Z,1.60
2018-10-03T18:26:51.276Z,3.15
2018-10-03T18:29:19.323Z,1.60
2018-10-03T18:31:47.390Z,1.65
2018-10-03T18:34:15.546Z,1.70
2018-10-03T18:36:43.611Z,2.40
2018-10-03T18:39:11.869Z,2.22
2018-10-03T18:41:40.272Z,1.98
2018-10-03T18:44:08.456Z,1.25
2018-10-03T18:46:36.479Z,1.32
2018-10-03T18:49:04.496Z,1.50
2018-10-03T18:51:35.924Z,1.30
2018-10-03T18:54:03.943Z,2.20
2018-10-03T18:56:32.011Z,1.45
2018-10-03T18:59:00.115Z,1.75
2018-10-03T19:01:32.916Z,2.15
2018-10-03T19:04:00.891Z,2.02
2018-10-03T19:06:28.981Z,2.08
2018-10-03T19:08:58.021Z,1.52
2018-10-03T19:11:32.361Z,2.42
2018-10-03T19:14:00.391Z,1.75
2018-10-03T19:16:28.427Z,1.60
2018-10-03T19:18:56.461Z,1.55
2018-10-03T19:21:24.492Z,1.47
2018-10-03T19:23:57.078Z,1.92
2018-10-03T19:26:25.208Z,2.08
2018-10-03T19:28:53.233Z,2.10
2018-10-03T19:31:21.271Z,1.85
2018-10-03T19:33:57.579Z,1.65
2018-10-03T19:36:25.669Z,1.42
2018-10-03T19:38:53.625Z,1.77
2018-10-03T19:41:21.721Z,1.72
2018-10-03T19:43:54.066Z,1.50
2018-10-03T19:46:22.056Z,1.00
2018-10-03T19:48:50.215Z,1.22
2018-10-03T19:51:21.667Z,1.42
2018-10-03T19:53:49.780Z,1.30
2018-10-03T19:56:17.795Z,1.70
2018-10-03T19:58:45.821Z,1.52
2018-10-03T20:01:13.957Z,1.92
2018-10-03T20:03:42.201Z,1.80
2018-10-03T20:06:10.467Z,2.10
2018-10-03T20:08:45.905Z,1.52
2018-10-03T20:11:14.016Z,1.50
2018-10-03T20:13:42.211Z,1.20
2018-10-03T20:16:10.308Z,1.67
2018-10-03T20:18:38.365Z,2.10
2018-10-03T20:21:06.441Z,1.60
2018-10-03T20:23:34.460Z,1.50
2018-10-03T20:26:13.868Z,2.12
2018-10-03T20:28:41.876Z,1.52
2018-10-03T20:31:09.866Z,1.27
2018-10-03T20:33:37.822Z,1.42
2018-10-03T20:36:06.044Z,2.05
2018-10-03T20:38:33.995Z,1.25
2018-10-03T20:41:01.985Z,1.50
2018-10-03T20:43:29.991Z,1.75
2018-10-03T20:45:58.235Z,1.40
2018-10-03T20:48:26.271Z,1.65
2018-10-03T20:50:54.297Z,1.70
2018-10-03T20:53:22.302Z,1.17
2018-10-03T20:55:54.250Z,1.60
2018-10-03T20:58:22.239Z,1.30
2018-10-03T21:00:50.358Z,1.25
2018-10-03T21:03:18.339Z,1.20
2018-10-03T21:05:47.426Z,1.40
2018-10-03T21:08:15.432Z,1.30
2018-10-03T21:10:43.506Z,1.50
2018-10-03T21:13:11.876Z,1.02
2018-10-03T21:15:58.494Z,1.80
2018-10-03T21:18:26.515Z,2.10
2018-10-03T21:20:54.588Z,1.82
2018-10-03T21:23:22.640Z,1.60
2018-10-03T21:25:56.864Z,1.60
2018-10-03T21:28:24.914Z,1.50
2018-10-03T21:30:52.908Z,1.52
2018-10-03T21:33:20.936Z,1.42
2018-10-03T21:35:53.593Z,2.10
2018-10-03T21:38:21.554Z,2.08
2018-10-03T21:40:49.545Z,1.50
2018-10-03T21:43:17.509Z,1.65
2018-10-03T21:45:46.675Z,1.35
2018-10-03T21:48:14.693Z,1.10
2018-10-03T21:50:42.695Z,2.15
2018-10-03T21:53:10.705Z,1.27
2018-10-03T21:55:42.156Z,1.70
2018-10-03T21:58:10.177Z,1.22
2018-10-03T22:00:43.734Z,1.35
2018-10-03T22:03:11.723Z,1.70
2018-10-03T22:05:39.793Z,1.90
2018-10-03T22:08:07.774Z,1.30
2018-10-03T22:10:35.716Z,1.42
2018-10-03T22:13:07.659Z,1.50
2018-10-03T22:15:35.692Z,2.67
2018-10-03T22:18:03.739Z,1.60
2018-10-03T22:20:31.864Z,1.60
2018-10-03T22:22:59.905Z,1.20
2018-10-03T22:25:27.870Z,1.10
2018-10-03T22:27:55.885Z,1.37
2018-10-03T22:30:24.378Z,1.30
2018-10-03T22:32:52.407Z,1.77
2018-10-03T22:35:20.376Z,1.35
2018-10-03T22:37:55.877Z,1.40
2018-10-03T22:40:23.867Z,1.57
2018-10-03T22:42:51.864Z,1.50
2018-10-03T22:45:21.005Z,1.57
2018-10-03T22:47:48.988Z,1.50
2018-10-03T22:50:16.975Z,1.40
2018-10-03T22:52:44.941Z,1.77
2018-10-03T22:55:19.155Z,1.65
2018-10-03T22:57:47.118Z,1.40
2018-10-03T23:00:15.134Z,1.27
2018-10-03T23:02:43.102Z,1.80
2018-10-03T23:05:15.966Z,1.25
2018-10-03T23:07:43.971Z,1.47
2018-10-03T23:10:12.045Z,2.05
2018-10-03T23:12:49.628Z,1.95
2018-10-03T23:15:17.587Z,1.27
2018-10-03T23:17:45.581Z,1.30
2018-10-03T23:20:13.665Z,1.20
2018-10-03T23:22:41.634Z,1.35
2018-10-03T23:25:09.623Z,1.62
2018-10-03T23:27:37.645Z,2.22
2018-10-03T23:30:06.165Z,1.40
2018-10-03T23:32:34.079Z,1.30
2018-10-03T23:35:02.094Z,1.35
2018-10-03T23:37:30.129Z,1.70
2018-10-03T23:39:58.232Z,2.55
2018-10-03T23:42:26.245Z,1.50
2018-10-03T23:44:54.245Z,1.32
2018-10-03T23:47:22.244Z,1.17
2018-10-03T23:49:50.260Z,1.32
2018-10-03T23:52:18.390Z,2.08
2018-10-03T23:54:46.390Z,2.05
2018-10-03T23:57:14.434Z,1.57
2018-10-03T23:59:42.462Z,1.77
